Belmont, CA (94002)

10:20 AM PDT on July 03, 2015 (GMT -0700)
Oak Knoll | | Change Station
CLOSE
Current Station
Personal Weather Station
Location: Belmont, CA
Elevation: 410 ft
Nearby Weather Stations

Elev 410 ft 37.52 °N, 122.29 °W | Updated 1 minute ago

Scattered Clouds
Scattered Clouds
69.3 °F
Feels Like 69.3 °F
N
0.0
Wind Variable Wind from WSW
Gusts 2.0 mph

Today
High -- | Low -- °F
--% Chance of Precip.
Yesterday
High -- | Low -- °F
Precip. -- in
5:52 AM 8:34 PM
Waning Gibbous, 97% visible
Pressure 29.97 in
Visibility 10.0 miles
Clouds Scattered Clouds 1800 ft
Scattered Clouds 18000 ft
Dew Point 60 °F
Humidity 73%
Rainfall 0.00 in
Snow Depth Not available.
UV 5 out of 12
Pollen 4.00 out of 12
Air Quality Not available.
Flu Activity Not available.
METAR KSQL 031647Z 35005KT 10SM SCT018 SCT180 20/15 A2997

More Conditions Fewer Conditions

Pressure 29.97 in
Visibility 10.0 miles
Clouds Scattered Clouds 1800 ft
Scattered Clouds 18000 ft
Dew Point 60 °F
Humidity 73%
Rainfall 0.00 in
Snow Depth Not available.
UV 5 out of 12
Pollen 4.00 out of 12
Air Quality Not available.
Flu Activity Not available.
METAR KSQL 031647Z 35005KT 10SM SCT018 SCT180 20/15 A2997

More Conditions Fewer Conditions

10-Day Weather Forecast

×

Almanac

Astronomy

Jul. 03, 2015 Rise Set
Actual Time
Civil Twilight
Nautical Twilight
Astronomical Twilight
Moon
Length of Visible Light
Length of Day
Tomorrow will be .
, % of the Moon is Illuminated

Today's Extremes

State Highs State Lows

Community

WunderPhotos

Upload Photos

1,834,718 photos uploaded!

WunderBlogs® & News

Nearby

Air Quality

  Air Quality AQ Index Pollutant
Not available.

Snow Depth

Station Depth Elevation

Earthquake Activity

City Distance Mag. Time & Date
Minimum magnitude displayed is 2.5.

Coastal Water Temperatures

Place Temperature

Stations

Nearby Weather Stations

Station Location Temp. Windchill Dew Point Humidity Wind Precip. Elev Updated Type